createdAt,value
2022-10-13T00:01:17.826Z,6.60
2022-10-13T00:03:47.098Z,6.60
2022-10-13T00:06:22.599Z,6.60
2022-10-13T00:08:50.659Z,6.60
2022-10-13T00:11:20.560Z,6.50
2022-10-13T00:13:49.388Z,6.60
2022-10-13T00:16:20.666Z,6.60
2022-10-13T00:18:49.320Z,6.60
2022-10-13T00:21:18.960Z,6.70
2022-10-13T00:23:48.253Z,6.60
2022-10-13T00:26:21.845Z,6.50
2022-10-13T00:28:52.822Z,6.60
2022-10-13T00:31:24.191Z,6.40
2022-10-13T00:33:52.837Z,6.50
2022-10-13T00:36:23.008Z,6.50
2022-10-13T00:38:51.422Z,6.50
2022-10-13T00:41:22.201Z,6.50
2022-10-13T00:43:53.876Z,6.40
2022-10-13T00:46:24.784Z,6.40
2022-10-13T00:48:59.752Z,6.40
2022-10-13T00:51:32.986Z,6.30
2022-10-13T00:54:06.549Z,6.30
2022-10-13T00:56:36.490Z,6.30
2022-10-13T00:59:06.810Z,6.20
2022-10-13T01:01:36.468Z,6.20
2022-10-13T01:04:04.643Z,6.20
2022-10-13T01:06:35.411Z,6.20
2022-10-13T01:09:03.330Z,6.20
2022-10-13T01:11:44.731Z,6.20
2022-10-13T01:14:21.059Z,6.20
2022-10-13T01:17:01.486Z,6.20
2022-10-13T01:20:06.087Z,6.10
2022-10-13T01:22:46.698Z,6.20
2022-10-13T01:25:39.939Z,6.20
2022-10-13T01:28:28.042Z,6.20
2022-10-13T01:31:02.114Z,6.20
2022-10-13T01:33:38.909Z,6.10
2022-10-13T01:36:21.708Z,6.10
2022-10-13T01:38:56.886Z,6.10
2022-10-13T01:41:34.351Z,6.10
2022-10-13T01:44:07.220Z,6.10
2022-10-13T01:46:39.047Z,6.00
2022-10-13T01:49:11.106Z,6.00
2022-10-13T01:51:40.516Z,6.00
2022-10-13T01:54:08.446Z,6.00
2022-10-13T01:56:36.419Z,6.00
2022-10-13T01:59:08.461Z,6.00
2022-10-13T02:01:53.067Z,6.00
2022-10-13T02:04:36.140Z,6.00
2022-10-13T02:07:11.347Z,6.10
2022-10-13T02:09:45.817Z,6.00
2022-10-13T02:12:21.453Z,6.20
2022-10-13T02:14:51.816Z,6.30
2022-10-13T02:17:21.546Z,6.40
2022-10-13T02:19:49.693Z,6.50
2022-10-13T02:22:22.052Z,6.50
2022-10-13T02:24:50.125Z,6.50
2022-10-13T02:27:20.725Z,6.50
2022-10-13T02:29:53.223Z,6.40
2022-10-13T02:32:23.777Z,6.40
2022-10-13T02:34:52.748Z,6.30
2022-10-13T02:37:20.857Z,6.30
2022-10-13T02:39:49.076Z,6.30
2022-10-13T02:42:18.731Z,6.20
2022-10-13T02:44:47.137Z,6.20
2022-10-13T02:47:15.108Z,6.20
2022-10-13T02:49:44.337Z,6.20
2022-10-13T02:52:15.821Z,6.10
2022-10-13T02:54:43.749Z,6.10
2022-10-13T02:57:13.789Z,6.00
2022-10-13T02:59:44.708Z,6.10
2022-10-13T03:02:12.773Z,6.10
2022-10-13T03:04:40.852Z,6.00
2022-10-13T03:07:10.258Z,6.00
2022-10-13T03:09:38.306Z,6.00
2022-10-13T03:12:06.762Z,6.00
2022-10-13T03:14:35.358Z,5.80
2022-10-13T03:17:03.721Z,5.80
2022-10-13T03:19:31.962Z,5.80
2022-10-13T03:21:59.916Z,5.70
2022-10-13T03:24:29.476Z,5.70
2022-10-13T03:26:57.391Z,5.70
2022-10-13T03:29:25.387Z,5.70
2022-10-13T03:31:53.327Z,5.60
2022-10-13T03:34:21.403Z,5.60
2022-10-13T03:36:49.315Z,5.70
2022-10-13T03:39:17.426Z,5.60
2022-10-13T03:41:47.120Z,5.60
2022-10-13T03:44:15.361Z,5.60
2022-10-13T03:46:43.259Z,5.60
2022-10-13T03:49:12.056Z,5.60
2022-10-13T03:51:42.106Z,5.60
2022-10-13T03:54:12.696Z,5.60
2022-10-13T03:56:42.280Z,5.60
2022-10-13T03:59:16.579Z,5.60
2022-10-13T04:01:48.556Z,5.70
2022-10-13T04:04:16.507Z,5.70
2022-10-13T04:06:44.574Z,5.80
2022-10-13T04:09:13.085Z,5.80
2022-10-13T04:11:40.992Z,5.80
2022-10-13T04:14:08.937Z,5.90
2022-10-13T04:16:40.102Z,5.90
2022-10-13T04:19:08.056Z,5.90
2022-10-13T04:21:36.433Z,5.90
2022-10-13T04:24:04.968Z,5.90
2022-10-13T04:26:35.449Z,6.00
2022-10-13T04:29:10.505Z,6.00
2022-10-13T04:31:40.428Z,6.00
2022-10-13T04:34:08.536Z,6.00
2022-10-13T04:36:36.541Z,6.00
2022-10-13T04:39:05.309Z,6.00
2022-10-13T04:41:34.471Z,6.00
2022-10-13T04:44:02.561Z,6.00
2022-10-13T04:46:30.946Z,6.00
2022-10-13T04:49:00.257Z,6.00
2022-10-13T04:51:33.423Z,6.00
2022-10-13T04:54:02.476Z,6.00
2022-10-13T04:56:30.739Z,6.00
2022-10-13T04:59:05.204Z,6.00
2022-10-13T05:01:33.352Z,6.00
2022-10-13T05:04:04.316Z,6.00
2022-10-13T05:06:53.318Z,6.00
2022-10-13T05:09:27.332Z,6.00
2022-10-13T05:11:55.587Z,6.00
2022-10-13T05:14:23.994Z,6.00
2022-10-13T05:16:52.000Z,6.10
2022-10-13T05:19:23.824Z,6.10
2022-10-13T05:21:53.894Z,6.10
2022-10-13T05:24:30.910Z,6.10
2022-10-13T05:26:59.005Z,6.20
2022-10-13T05:29:27.227Z,6.20
2022-10-13T05:31:55.278Z,6.20
2022-10-13T05:34:24.689Z,6.20
2022-10-13T05:36:55.068Z,6.20
2022-10-13T05:39:23.283Z,6.30
2022-10-13T05:41:51.284Z,6.30
2022-10-13T05:44:22.688Z,6.30
2022-10-13T05:47:02.542Z,6.30
2022-10-13T05:49:36.344Z,6.40
2022-10-13T05:52:09.860Z,6.40
2022-10-13T05:54:41.130Z,6.50
2022-10-13T05:57:15.889Z,6.60
2022-10-13T05:59:48.958Z,6.60
2022-10-13T06:02:18.637Z,6.70
2022-10-13T06:04:51.884Z,6.70
2022-10-13T06:07:22.372Z,6.80
2022-10-13T06:09:50.761Z,6.70
2022-10-13T06:12:19.028Z,6.70
2022-10-13T06:14:47.241Z,6.80
2022-10-13T06:17:16.357Z,6.80
2022-10-13T06:19:45.256Z,6.80
2022-10-13T06:22:14.712Z,6.90
2022-10-13T06:24:43.130Z,6.90
2022-10-13T06:27:11.518Z,6.90
2022-10-13T06:29:39.518Z,6.80
2022-10-13T06:32:07.716Z,6.90
2022-10-13T06:34:35.772Z,6.90
2022-10-13T06:37:06.395Z,7.00
2022-10-13T06:39:35.838Z,7.00
2022-10-13T06:42:05.094Z,7.20
2022-10-13T06:44:38.761Z,7.20
2022-10-13T06:47:06.771Z,7.40
2022-10-13T06:49:34.813Z,7.50
2022-10-13T06:52:02.711Z,7.50
2022-10-13T06:54:30.630Z,7.60
2022-10-13T06:56:59.864Z,7.70
2022-10-13T06:59:28.000Z,7.70
2022-10-13T07:01:55.944Z,7.80
2022-10-13T07:04:25.845Z,7.90
2022-10-13T07:06:56.076Z,8.20
2022-10-13T07:09:24.095Z,8.40
2022-10-13T07:11:52.197Z,8.60
2022-10-13T07:14:21.679Z,8.60
2022-10-13T07:16:49.913Z,8.60
2022-10-13T07:19:17.827Z,8.70
2022-10-13T07:21:45.811Z,8.60
2022-10-13T07:24:15.832Z,8.50
2022-10-13T07:26:43.782Z,8.50
2022-10-13T07:29:11.903Z,8.70
2022-10-13T07:31:41.250Z,9.10
2022-10-13T07:34:09.266Z,9.10
2022-10-13T07:36:38.427Z,9.10
2022-10-13T07:39:06.450Z,9.30
2022-10-13T07:41:34.571Z,9.50
2022-10-13T07:44:02.486Z,9.40
2022-10-13T07:46:30.477Z,9.50
2022-10-13T07:49:05.178Z,9.50
2022-10-13T07:51:33.128Z,9.40
2022-10-13T07:54:01.048Z,9.30
2022-10-13T07:56:29.030Z,9.50
2022-10-13T07:58:57.626Z,9.80
2022-10-13T08:01:25.719Z,10.00
2022-10-13T08:03:56.325Z,10.30
2022-10-13T08:06:25.771Z,10.40
2022-10-13T08:09:00.576Z,10.50
2022-10-13T08:11:31.056Z,10.60
2022-10-13T08:14:01.616Z,10.80
2022-10-13T08:16:30.358Z,10.80
2022-10-13T08:18:58.767Z,11.10
2022-10-13T08:24:18.527Z,11.50
2022-10-13T08:26:48.107Z,11.80
2022-10-13T08:29:22.602Z,11.80
2022-10-13T08:31:52.855Z,11.90
2022-10-13T08:34:22.003Z,12.00
2022-10-13T08:36:56.371Z,12.00
2022-10-13T08:39:25.746Z,12.20
2022-10-13T08:41:54.172Z,12.20
2022-10-13T08:47:19.187Z,12.20
2022-10-13T08:49:47.761Z,12.60
2022-10-13T08:52:25.243Z,12.70
2022-10-13T08:54:56.098Z,12.80
2022-10-13T08:57:24.958Z,12.90
2022-10-13T08:59:53.947Z,12.90
2022-10-13T09:02:27.073Z,13.00
2022-10-13T09:04:55.193Z,13.10
2022-10-13T09:07:28.139Z,13.20
2022-10-13T09:09:56.009Z,13.30
2022-10-13T09:12:26.657Z,13.40
2022-10-13T09:15:01.245Z,13.50
2022-10-13T09:17:31.851Z,13.70
2022-10-13T09:20:04.310Z,13.90
2022-10-13T09:22:35.093Z,13.70
2022-10-13T09:25:18.421Z,13.90
2022-10-13T09:27:48.490Z,14.10
2022-10-13T09:30:26.990Z,13.90
2022-10-13T09:33:22.311Z,13.80
2022-10-13T09:36:07.386Z,13.80
2022-10-13T09:38:36.690Z,13.90
2022-10-13T09:41:11.571Z,13.80
2022-10-13T09:43:44.460Z,14.00
2022-10-13T09:46:23.746Z,14.20
2022-10-13T09:48:55.447Z,14.30
2022-10-13T09:51:42.462Z,14.30
2022-10-13T09:54:36.880Z,14.30
2022-10-13T09:57:10.471Z,14.30
2022-10-13T09:59:44.387Z,14.40
2022-10-13T10:02:23.690Z,14.40
2022-10-13T10:04:56.017Z,14.50
2022-10-13T10:07:30.142Z,14.80
2022-10-13T10:10:04.944Z,14.70
2022-10-13T10:12:36.941Z,14.70
2022-10-13T10:15:19.835Z,14.90
2022-10-13T10:17:55.298Z,14.90
2022-10-13T10:20:46.414Z,15.10
2022-10-13T10:23:23.920Z,15.20
2022-10-13T10:25:59.257Z,15.20
2022-10-13T10:28:57.303Z,15.10
2022-10-13T10:31:39.987Z,15.10
2022-10-13T10:34:22.522Z,15.10
2022-10-13T10:36:58.455Z,15.10
2022-10-13T10:39:31.918Z,15.30
2022-10-13T10:42:12.549Z,15.20
2022-10-13T10:44:44.590Z,15.30
2022-10-13T10:47:23.325Z,15.20
2022-10-13T10:49:54.387Z,15.20
2022-10-13T10:52:25.640Z,15.20
2022-10-13T10:55:10.955Z,15.20
2022-10-13T10:57:51.493Z,15.40
2022-10-13T11:00:22.059Z,15.50
2022-10-13T11:03:00.424Z,15.40
2022-10-13T11:05:58.941Z,15.30
2022-10-13T11:08:28.838Z,15.20
2022-10-13T11:11:34.916Z,15.20
2022-10-13T11:14:29.964Z,15.30
2022-10-13T11:17:18.700Z,15.40
2022-10-13T11:19:48.724Z,15.60
2022-10-13T11:22:19.961Z,15.80
2022-10-13T11:24:54.376Z,15.90
2022-10-13T11:27:44.635Z,16.10
2022-10-13T11:30:49.774Z,16.40
2022-10-13T11:33:54.026Z,16.40
2022-10-13T11:36:57.619Z,16.20
2022-10-13T11:39:43.127Z,16.50
2022-10-13T11:42:23.937Z,16.60
2022-10-13T11:44:56.742Z,16.20
2022-10-13T11:47:53.893Z,16.10
2022-10-13T11:50:30.054Z,16.10
2022-10-13T11:53:09.098Z,16.10
2022-10-13T11:55:45.117Z,15.90
2022-10-13T11:58:17.354Z,15.90
2022-10-13T12:00:53.770Z,16.10
2022-10-13T12:03:25.370Z,16.30
2022-10-13T12:05:54.125Z,16.40
2022-10-13T12:08:22.413Z,16.60
2022-10-13T12:10:58.258Z,16.70
2022-10-13T12:13:28.531Z,16.60
2022-10-13T12:16:03.284Z,16.60
2022-10-13T12:18:34.927Z,16.70
2022-10-13T12:21:05.632Z,16.70
2022-10-13T12:23:36.199Z,16.70
2022-10-13T12:26:05.006Z,16.70
2022-10-13T12:28:51.357Z,16.60
2022-10-13T12:31:21.515Z,16.60
2022-10-13T12:33:58.864Z,16.60
2022-10-13T12:36:30.381Z,16.80
2022-10-13T12:39:02.750Z,16.70
2022-10-13T12:41:33.475Z,16.70
2022-10-13T12:44:05.586Z,16.90
2022-10-13T12:46:39.931Z,17.10
2022-10-13T12:49:13.505Z,17.10
2022-10-13T12:51:42.435Z,16.90
2022-10-13T12:54:19.027Z,16.90
2022-10-13T12:56:48.748Z,16.90
2022-10-13T12:59:19.516Z,16.70
2022-10-13T13:01:55.628Z,16.60
2022-10-13T13:04:43.082Z,16.60
2022-10-13T13:07:32.018Z,16.50
2022-10-13T13:10:02.749Z,16.50
2022-10-13T13:12:31.576Z,16.50
2022-10-13T13:15:17.833Z,16.50
2022-10-13T13:17:57.902Z,16.40
2022-10-13T13:20:30.976Z,16.40
2022-10-13T13:22:58.947Z,16.30
2022-10-13T13:25:27.546Z,16.40
2022-10-13T13:27:55.699Z,16.30
2022-10-13T13:30:24.960Z,16.20
2022-10-13T13:32:53.109Z,16.30
2022-10-13T13:35:21.063Z,16.30
2022-10-13T13:37:53.839Z,16.30
2022-10-13T13:40:24.369Z,16.40
2022-10-13T13:42:52.225Z,16.40
2022-10-13T13:45:21.030Z,16.40
2022-10-13T13:47:50.701Z,16.40
2022-10-13T13:50:19.936Z,16.40
2022-10-13T13:52:58.428Z,16.40
2022-10-13T13:55:26.307Z,16.30
2022-10-13T13:57:54.172Z,16.40
2022-10-13T14:00:22.063Z,16.40
2022-10-13T14:02:55.677Z,16.40
2022-10-13T14:05:25.558Z,16.40
2022-10-13T14:07:58.994Z,16.50
2022-10-13T14:10:27.539Z,16.60
2022-10-13T14:12:57.746Z,17.00
2022-10-13T14:15:28.694Z,17.10
2022-10-13T14:17:57.502Z,17.20
2022-10-13T14:20:26.834Z,17.40
2022-10-13T14:22:54.729Z,17.50
2022-10-13T14:25:24.126Z,17.30
2022-10-13T14:27:51.925Z,17.00
2022-10-13T14:30:19.874Z,17.00
2022-10-13T14:32:47.698Z,16.70
2022-10-13T14:35:15.743Z,16.60
2022-10-13T14:37:43.519Z,16.70
2022-10-13T14:40:11.520Z,16.70
2022-10-13T14:42:42.383Z,16.60
2022-10-13T14:45:13.017Z,16.50
2022-10-13T14:47:41.179Z,16.40
2022-10-13T14:50:09.358Z,16.40
2022-10-13T14:52:37.290Z,16.30
2022-10-13T14:55:05.477Z,16.40
2022-10-13T14:57:34.634Z,16.40
2022-10-13T15:00:03.811Z,16.40
2022-10-13T15:02:31.607Z,16.40
2022-10-13T15:04:59.397Z,16.30
2022-10-13T15:07:27.191Z,16.20
2022-10-13T15:10:05.085Z,16.10
2022-10-13T15:12:33.985Z,16.00
2022-10-13T15:15:01.767Z,15.90
2022-10-13T15:17:33.203Z,15.90
2022-10-13T15:20:03.838Z,15.80
2022-10-13T15:22:31.787Z,15.70
2022-10-13T15:24:59.614Z,15.60
2022-10-13T15:27:27.583Z,15.50
2022-10-13T15:29:57.925Z,15.40
2022-10-13T15:32:26.038Z,15.30
2022-10-13T15:34:56.992Z,15.20
2022-10-13T15:37:26.207Z,15.20
2022-10-13T15:39:57.376Z,15.10
2022-10-13T15:42:25.555Z,15.00
2022-10-13T15:45:10.502Z,14.90
2022-10-13T15:47:39.431Z,14.90
2022-10-13T15:50:09.413Z,14.80
2022-10-13T15:52:38.401Z,14.60
2022-10-13T15:55:06.524Z,14.50
2022-10-13T15:57:37.631Z,14.40
2022-10-13T16:00:06.039Z,14.30
2022-10-13T16:02:40.403Z,14.20
2022-10-13T16:05:11.078Z,14.20
2022-10-13T16:07:39.901Z,14.10
2022-10-13T16:10:08.843Z,14.00
2022-10-13T16:12:36.743Z,13.80
2022-10-13T16:15:04.672Z,13.70
2022-10-13T16:17:32.496Z,13.70
2022-10-13T16:20:00.601Z,13.60
2022-10-13T16:22:29.770Z,13.60
2022-10-13T16:24:57.730Z,13.60
2022-10-13T16:27:25.588Z,13.50
2022-10-13T16:29:53.409Z,13.50
2022-10-13T16:32:21.492Z,13.40
2022-10-13T16:34:49.509Z,13.50
2022-10-13T16:37:20.315Z,13.40
2022-10-13T16:39:51.970Z,13.30
2022-10-13T16:42:20.167Z,13.20
2022-10-13T16:44:50.289Z,13.20
2022-10-13T16:47:18.807Z,13.00
2022-10-13T16:49:47.036Z,13.00
2022-10-13T16:52:15.704Z,12.90
2022-10-13T16:54:44.884Z,12.80
2022-10-13T16:57:16.126Z,12.70
2022-10-13T16:59:43.864Z,12.60
2022-10-13T17:02:14.075Z,12.60
2022-10-13T17:04:42.190Z,12.70
2022-10-13T17:07:09.960Z,12.60
2022-10-13T17:09:37.798Z,12.50
2022-10-13T17:12:05.982Z,12.50
2022-10-13T17:14:35.157Z,12.40
2022-10-13T17:17:02.906Z,12.40
2022-10-13T17:19:30.758Z,12.40
2022-10-13T17:21:58.521Z,12.30
2022-10-13T17:24:26.441Z,12.30
2022-10-13T17:26:54.260Z,12.30
2022-10-13T17:29:22.012Z,12.20
2022-10-13T17:31:51.344Z,12.30
2022-10-13T17:34:22.332Z,12.20
2022-10-13T17:36:52.469Z,12.20
2022-10-13T17:39:20.309Z,12.20
2022-10-13T17:41:48.074Z,12.20
2022-10-13T17:44:20.308Z,12.10
2022-10-13T17:46:48.729Z,12.10
2022-10-13T17:49:18.175Z,12.00
2022-10-13T17:51:46.053Z,11.90
2022-10-13T17:54:16.394Z,11.80
2022-10-13T17:56:47.400Z,11.70
2022-10-13T17:59:16.296Z,11.60
2022-10-13T18:01:44.508Z,11.60
2022-10-13T18:04:13.554Z,11.50
2022-10-13T18:06:44.247Z,11.50
2022-10-13T18:09:12.932Z,11.50
2022-10-13T18:11:43.350Z,11.50
2022-10-13T18:14:15.304Z,11.50
2022-10-13T18:16:46.646Z,11.40
2022-10-13T18:19:16.067Z,11.30
2022-10-13T18:21:45.353Z,11.40
2022-10-13T18:24:13.169Z,11.30
2022-10-13T18:26:41.032Z,11.30
2022-10-13T18:29:09.697Z,11.50
2022-10-13T18:31:38.174Z,11.50
2022-10-13T18:34:06.766Z,11.50
2022-10-13T18:36:35.656Z,11.50
2022-10-13T18:39:09.238Z,11.50
2022-10-13T18:41:40.444Z,11.50
2022-10-13T18:44:08.584Z,11.50
2022-10-13T18:46:36.720Z,11.70
2022-10-13T18:49:04.760Z,11.60
2022-10-13T18:51:36.197Z,11.60
2022-10-13T18:54:04.643Z,11.50
2022-10-13T18:56:34.251Z,11.50
2022-10-13T18:59:02.809Z,11.50
2022-10-13T19:01:31.447Z,11.40
2022-10-13T19:03:59.334Z,11.20
2022-10-13T19:06:28.066Z,11.10
2022-10-13T19:08:56.176Z,11.00
2022-10-13T19:11:24.608Z,10.90
2022-10-13T19:13:54.125Z,10.70
2022-10-13T19:16:25.075Z,10.70
2022-10-13T19:18:53.125Z,10.60
2022-10-13T19:21:23.396Z,10.50
2022-10-13T19:23:53.582Z,10.50
2022-10-13T19:26:23.708Z,10.40
2022-10-13T19:28:56.505Z,10.40
2022-10-13T19:31:26.473Z,10.40
2022-10-13T19:33:54.674Z,10.30
2022-10-13T19:36:25.522Z,10.30
2022-10-13T19:38:54.480Z,10.30
2022-10-13T19:41:22.525Z,10.20
2022-10-13T19:43:50.727Z,10.20
2022-10-13T19:46:19.988Z,10.20
2022-10-13T19:48:47.810Z,10.30
2022-10-13T19:51:15.737Z,10.40
2022-10-13T19:53:46.812Z,10.40
2022-10-13T19:56:22.656Z,10.30
2022-10-13T19:58:50.507Z,10.30
2022-10-13T20:01:20.096Z,10.20
2022-10-13T20:03:48.409Z,10.20
2022-10-13T20:06:16.485Z,10.20
2022-10-13T20:08:45.467Z,10.20
2022-10-13T20:11:17.223Z,10.10
2022-10-13T20:13:47.777Z,10.10
2022-10-13T20:16:16.458Z,10.10
2022-10-13T20:18:45.651Z,10.00
2022-10-13T20:21:14.905Z,10.00
2022-10-13T20:23:42.643Z,10.00
2022-10-13T20:26:12.363Z,9.90
2022-10-13T20:28:42.931Z,9.80
2022-10-13T20:31:12.877Z,9.80
2022-10-13T20:33:40.761Z,9.80
2022-10-13T20:36:11.973Z,9.80
2022-10-13T20:38:39.827Z,9.70
2022-10-13T20:41:08.385Z,9.70
2022-10-13T20:43:36.934Z,9.70
2022-10-13T20:46:06.369Z,9.60
2022-10-13T20:48:57.763Z,9.50
2022-10-13T20:51:24.431Z,9.50
2022-10-13T20:53:52.750Z,9.40
2022-10-13T20:56:22.395Z,9.40
2022-10-13T20:58:50.615Z,9.40
2022-10-13T21:01:19.011Z,9.40
2022-10-13T21:03:46.833Z,9.50
2022-10-13T21:06:15.412Z,9.50
2022-10-13T21:08:47.169Z,9.50
2022-10-13T21:11:16.069Z,9.40
2022-10-13T21:13:44.545Z,9.40
2022-10-13T21:16:13.529Z,9.30
2022-10-13T21:18:41.362Z,9.30
2022-10-13T21:21:10.820Z,9.30
2022-10-13T21:23:40.541Z,9.30
2022-10-13T21:26:10.878Z,9.30
2022-10-13T21:28:40.959Z,9.20
2022-10-13T21:31:09.514Z,9.30
2022-10-13T21:33:37.801Z,9.20
2022-10-13T21:36:06.443Z,9.20
2022-10-13T21:38:34.256Z,9.20
2022-10-13T21:41:04.626Z,9.10
2022-10-13T21:43:33.950Z,9.10
2022-10-13T21:46:08.724Z,9.00
2022-10-13T21:48:43.582Z,9.00
2022-10-13T21:51:12.763Z,9.00
2022-10-13T21:53:40.638Z,9.00
2022-10-13T21:56:09.141Z,9.00
2022-10-13T21:58:38.712Z,9.00
2022-10-13T22:01:07.070Z,9.00
2022-10-13T22:03:35.254Z,9.00
2022-10-13T22:06:07.048Z,9.10
2022-10-13T22:08:38.554Z,9.10
2022-10-13T22:11:15.651Z,8.90
2022-10-13T22:13:44.806Z,8.90
2022-10-13T22:16:13.416Z,8.80
2022-10-13T22:18:45.636Z,8.80
2022-10-13T22:21:14.620Z,8.80
2022-10-13T22:23:43.018Z,8.80
2022-10-13T22:26:11.140Z,8.80
2022-10-13T22:28:39.126Z,8.70
2022-10-13T22:31:09.611Z,8.80
2022-10-13T22:33:38.221Z,8.90
2022-10-13T22:36:09.404Z,9.10
2022-10-13T22:38:37.195Z,9.10
2022-10-13T22:41:07.553Z,9.30
2022-10-13T22:43:35.656Z,9.40
2022-10-13T22:46:13.917Z,9.40
2022-10-13T22:48:41.886Z,9.50
2022-10-13T22:51:15.148Z,9.50
2022-10-13T22:53:43.025Z,9.50
2022-10-13T22:56:12.165Z,9.40
2022-10-13T22:58:40.015Z,9.40
2022-10-13T23:01:08.638Z,9.20
2022-10-13T23:03:37.886Z,9.10
2022-10-13T23:06:09.015Z,8.90
2022-10-13T23:08:36.795Z,8.80
2022-10-13T23:11:04.666Z,8.80
2022-10-13T23:13:32.464Z,8.70
2022-10-13T23:16:03.884Z,8.70
2022-10-13T23:18:35.253Z,8.80
2022-10-13T23:21:06.539Z,8.70
2022-10-13T23:23:36.978Z,8.60
2022-10-13T23:26:05.008Z,8.50
2022-10-13T23:28:33.290Z,8.40
2022-10-13T23:31:02.070Z,8.50
2022-10-13T23:33:30.420Z,8.50
2022-10-13T23:35:58.671Z,8.50
2022-10-13T23:38:28.964Z,8.40
2022-10-13T23:40:57.034Z,8.40
2022-10-13T23:43:24.893Z,8.30
2022-10-13T23:45:52.887Z,8.50
2022-10-13T23:48:20.680Z,8.50
2022-10-13T23:50:48.500Z,8.70
2022-10-13T23:53:17.308Z,8.80
2022-10-13T23:55:46.491Z,8.60
2022-10-13T23:58:14.958Z,8.50
